createdAt,value
2018-08-10T00:00:13.487Z,1007.92
2018-08-10T00:00:39.621Z,1008
2018-08-10T00:01:05.777Z,1007.95
2018-08-10T00:01:31.913Z,1007.86
2018-08-10T00:01:58.052Z,1008.08
2018-08-10T00:02:24.183Z,1007.86
2018-08-10T00:02:50.315Z,1007.97
2018-08-10T00:03:16.472Z,1007.96
2018-08-10T00:03:42.608Z,1007.95
2018-08-10T00:04:08.744Z,1008
2018-08-10T00:04:34.879Z,1007.93
2018-08-10T00:05:01.038Z,1008.03
2018-08-10T00:05:27.171Z,1007.99
2018-08-10T00:05:53.311Z,1007.94
2018-08-10T00:06:19.442Z,1007.99
2018-08-10T00:06:45.574Z,1008
2018-08-10T00:07:11.711Z,1008.08
2018-08-10T00:07:37.851Z,1007.98
2018-08-10T00:08:04.004Z,1008.16
2018-08-10T00:08:30.135Z,1007.9
2018-08-10T00:08:56.319Z,1008.02
2018-08-10T00:09:22.411Z,1008.1
2018-08-10T00:09:48.532Z,1008.13
2018-08-10T00:10:14.674Z,1008.03
2018-08-10T00:10:40.809Z,1008.15
2018-08-10T00:11:06.955Z,1008.09
2018-08-10T00:11:33.096Z,1008.11
2018-08-10T00:11:59.232Z,1008.17
2018-08-10T00:12:25.396Z,1008.21
2018-08-10T00:12:51.557Z,1008.17
2018-08-10T00:13:17.717Z,1008.22
2018-08-10T00:13:43.848Z,1008.1
2018-08-10T00:14:09.992Z,1008.09
2018-08-10T00:14:36.153Z,1008.11
2018-08-10T00:15:02.288Z,1008.17
2018-08-10T00:15:28.443Z,1008.18
2018-08-10T00:16:20.734Z,1008.24
2018-08-10T00:16:46.869Z,1008.27
2018-08-10T00:17:13.006Z,1008.28
2018-08-10T00:17:39.166Z,1008.35
2018-08-10T00:18:05.332Z,1008.28
2018-08-10T00:18:31.463Z,1008.34
2018-08-10T00:18:57.595Z,1008.42
2018-08-10T00:19:53.557Z,1008.49
2018-08-10T00:20:19.693Z,1008.53
2018-08-10T00:20:45.830Z,1008.46
2018-08-10T00:21:11.968Z,1008.46
2018-08-10T00:21:38.126Z,1008.49
2018-08-10T00:22:04.266Z,1008.41
2018-08-10T00:22:30.393Z,1008.51
2018-08-10T00:22:56.528Z,1008.53
2018-08-10T00:23:22.662Z,1008.55
2018-08-10T00:23:48.802Z,1008.53
2018-08-10T00:24:14.959Z,1008.59
2018-08-10T00:24:41.087Z,1008.65
2018-08-10T00:25:07.226Z,1008.59
2018-08-10T00:25:33.360Z,1008.51
2018-08-10T00:25:59.530Z,1008.52
2018-08-10T00:26:25.664Z,1008.65
2018-08-10T00:26:51.809Z,1008.66
2018-08-10T00:27:17.952Z,1008.58
2018-08-10T00:27:44.093Z,1008.68
2018-08-10T00:28:10.223Z,1008.66
2018-08-10T00:28:36.361Z,1008.73
2018-08-10T00:29:02.525Z,1008.74
2018-08-10T00:29:28.655Z,1008.75
2018-08-10T00:29:54.796Z,1008.63
2018-08-10T00:30:20.925Z,1008.7
2018-08-10T00:30:47.066Z,1008.79
2018-08-10T00:31:13.196Z,1008.83
2018-08-10T00:31:39.339Z,1008.81
2018-08-10T00:32:05.475Z,1008.85
2018-08-10T00:32:31.611Z,1008.83
2018-08-10T00:32:57.742Z,1008.84
2018-08-10T00:33:23.922Z,1008.92
2018-08-10T00:33:50.076Z,1008.95
2018-08-10T00:34:16.217Z,1008.89
2018-08-10T00:34:42.351Z,1008.9
2018-08-10T00:35:08.491Z,1008.99
2018-08-10T00:35:34.623Z,1008.95
2018-08-10T00:36:00.758Z,1009.02
2018-08-10T00:36:26.892Z,1009
2018-08-10T00:36:53.024Z,1008.98
2018-08-10T00:37:19.158Z,1008.97
2018-08-10T00:37:45.306Z,1008.97
2018-08-10T00:38:11.431Z,1009.06
2018-08-10T00:38:37.561Z,1009.02
2018-08-10T00:39:03.700Z,1009.01
2018-08-10T00:39:29.827Z,1009.07
2018-08-10T00:39:56.021Z,1009.08
2018-08-10T00:40:22.183Z,1009.14
2018-08-10T00:40:48.327Z,1009.12
2018-08-10T00:41:14.462Z,1009.28
2018-08-10T00:41:40.594Z,1009.08
2018-08-10T00:42:06.723Z,1009.16
2018-08-10T00:42:32.860Z,1009.2
2018-08-10T00:42:58.999Z,1009.21
2018-08-10T00:43:25.129Z,1009.27
2018-08-10T00:43:51.291Z,1009.22
2018-08-10T00:44:17.423Z,1009.29
2018-08-10T00:44:43.590Z,1009.31
2018-08-10T00:45:09.723Z,1009.34
2018-08-10T00:45:35.861Z,1009.41
2018-08-10T00:46:01.992Z,1009.21
2018-08-10T00:46:28.118Z,1009.38
2018-08-10T00:46:54.258Z,1009.39
2018-08-10T00:47:20.388Z,1009.24
2018-08-10T00:47:46.537Z,1009.4
2018-08-10T00:48:12.672Z,1009.44
2018-08-10T00:48:38.827Z,1009.42
2018-08-10T00:49:04.991Z,1009.53
2018-08-10T00:49:31.126Z,1009.51
2018-08-10T00:49:57.263Z,1009.53
2018-08-10T00:50:23.419Z,1009.43
2018-08-10T00:50:49.555Z,1009.51
2018-08-10T00:51:15.714Z,1009.57
2018-08-10T00:51:41.868Z,1009.42
2018-08-10T00:52:08.008Z,1009.61
2018-08-10T00:52:34.176Z,1009.57
2018-08-10T00:53:00.305Z,1009.54
2018-08-10T00:53:26.458Z,1009.58
2018-08-10T00:53:52.598Z,1009.65
2018-08-10T00:54:18.739Z,1009.48
2018-08-10T00:54:44.872Z,1009.57
2018-08-10T00:55:11.015Z,1009.58
2018-08-10T00:55:37.138Z,1009.63
2018-08-10T00:56:03.276Z,1009.6
2018-08-10T00:56:29.438Z,1009.7
2018-08-10T00:56:55.587Z,1009.73
2018-08-10T00:57:21.724Z,1009.66
2018-08-10T00:57:47.853Z,1009.62
2018-08-10T00:58:13.999Z,1009.66
2018-08-10T00:58:40.126Z,1009.59
2018-08-10T00:59:06.264Z,1009.76
2018-08-10T00:59:32.393Z,1009.67
2018-08-10T00:59:58.535Z,1009.77
2018-08-10T01:00:24.672Z,1009.74
2018-08-10T01:00:50.812Z,1009.77
2018-08-10T01:01:16.957Z,1009.75
2018-08-10T01:01:43.090Z,1009.87
2018-08-10T01:02:09.231Z,1009.84
2018-08-10T01:02:35.366Z,1009.81
2018-08-10T01:03:01.500Z,1009.92
2018-08-10T01:03:27.636Z,1009.88
2018-08-10T01:03:53.799Z,1009.83
2018-08-10T01:04:19.929Z,1009.9
2018-08-10T01:04:46.065Z,1009.98
2018-08-10T01:05:12.266Z,1009.92
2018-08-10T01:05:38.411Z,1009.95
2018-08-10T01:06:04.575Z,1009.91
2018-08-10T01:06:30.701Z,1009.93
2018-08-10T01:06:56.838Z,1009.92
2018-08-10T01:07:22.999Z,1009.9
2018-08-10T01:07:49.152Z,1010.06
2018-08-10T01:08:15.287Z,1009.89
2018-08-10T01:08:41.428Z,1009.99
2018-08-10T01:09:07.562Z,1009.89
2018-08-10T01:09:33.699Z,1009.99
2018-08-10T01:09:59.828Z,1009.98
2018-08-10T01:10:25.967Z,1010.1
2018-08-10T01:10:52.103Z,1010.03
2018-08-10T01:11:18.246Z,1010.06
2018-08-10T01:11:44.385Z,1010.03
2018-08-10T01:12:10.563Z,1010.14
2018-08-10T01:12:36.723Z,1010.03
2018-08-10T01:13:02.861Z,1010.18
2018-08-10T01:13:29.169Z,1010.26
2018-08-10T01:13:55.147Z,1010.14
2018-08-10T01:14:21.290Z,1010.14
2018-08-10T01:14:47.418Z,1010.18
2018-08-10T01:15:13.560Z,1010.15
2018-08-10T01:15:39.713Z,1010.2
2018-08-10T01:16:05.851Z,1010.22
2018-08-10T01:16:31.981Z,1010.24
2018-08-10T01:16:58.127Z,1010.2
2018-08-10T01:17:24.258Z,1010.26
2018-08-10T01:17:50.398Z,1010.23
2018-08-10T01:18:16.525Z,1010.25
2018-08-10T01:18:42.655Z,1010.18
2018-08-10T01:19:08.859Z,1010.29
2018-08-10T01:19:34.943Z,1010.27
2018-08-10T01:20:01.083Z,1010.29
2018-08-10T01:20:27.214Z,1010.33
2018-08-10T01:20:53.352Z,1010.17
2018-08-10T01:21:19.492Z,1010.24
2018-08-10T01:21:45.617Z,1010.26
2018-08-10T01:22:11.750Z,1010.26
2018-08-10T01:22:37.895Z,1010.01
2018-08-10T01:23:04.073Z,1010.28
2018-08-10T01:23:30.210Z,1010.28
2018-08-10T01:23:56.338Z,1010.33
2018-08-10T01:24:22.474Z,1010.3
2018-08-10T01:24:48.610Z,1010.28
2018-08-10T01:25:14.744Z,1010.3
2018-08-10T01:25:40.883Z,1010.32
2018-08-10T01:26:07.022Z,1010.32
2018-08-10T01:26:33.178Z,1010.36
2018-08-10T01:26:59.314Z,1010.29
2018-08-10T01:27:25.450Z,1010.31
2018-08-10T01:27:51.579Z,1010.35
2018-08-10T01:28:17.767Z,1010.39
2018-08-10T01:28:43.928Z,1010.39
2018-08-10T01:29:10.044Z,1010.39
2018-08-10T01:29:36.175Z,1010.36
2018-08-10T01:30:02.316Z,1010.41
2018-08-10T01:30:28.450Z,1010.37
2018-08-10T01:30:54.583Z,1010.38
2018-08-10T01:31:20.715Z,1010.35
2018-08-10T01:31:46.852Z,1010.45
2018-08-10T01:32:12.984Z,1010.35
2018-08-10T01:32:39.121Z,1010.46
2018-08-10T01:33:05.309Z,1010.42
2018-08-10T01:33:31.470Z,1010.39
2018-08-10T01:33:57.601Z,1010.42
2018-08-10T01:34:23.740Z,1010.47
2018-08-10T01:34:49.894Z,1010.39
2018-08-10T01:35:16.057Z,1010.34
2018-08-10T01:35:42.188Z,1010.56
2018-08-10T01:36:08.347Z,1010.44
2018-08-10T01:36:34.479Z,1010.4
2018-08-10T01:37:00.607Z,1010.42
2018-08-10T01:37:26.741Z,1010.46
2018-08-10T01:37:52.882Z,1010.43
2018-08-10T01:38:19.012Z,1010.47
2018-08-10T01:38:45.177Z,1010.41
2018-08-10T01:39:11.307Z,1010.51
2018-08-10T01:39:37.463Z,1010.47
2018-08-10T01:40:03.606Z,1010.56
2018-08-10T01:40:29.738Z,1010.56
2018-08-10T01:40:55.869Z,1010.48
2018-08-10T01:41:22.026Z,1010.59
2018-08-10T01:41:48.161Z,1010.55
2018-08-10T01:42:14.291Z,1010.57
2018-08-10T01:42:40.434Z,1010.53
2018-08-10T01:43:06.563Z,1010.53
2018-08-10T01:43:32.703Z,1010.51
2018-08-10T01:43:58.832Z,1010.58
2018-08-10T01:44:24.991Z,1010.53
2018-08-10T01:44:51.130Z,1010.57
2018-08-10T01:45:17.272Z,1010.67
2018-08-10T01:45:43.429Z,1010.54
2018-08-10T01:46:09.560Z,1010.68
2018-08-10T01:46:35.692Z,1010.55
2018-08-10T01:47:01.849Z,1010.63
2018-08-10T01:47:27.989Z,1010.61
2018-08-10T01:47:54.122Z,1010.63
2018-08-10T01:48:20.261Z,1010.66
2018-08-10T01:48:46.412Z,1010.6
2018-08-10T01:49:12.556Z,1010.64
2018-08-10T01:49:38.682Z,1010.67
2018-08-10T01:50:04.838Z,1010.67
2018-08-10T01:50:30.984Z,1010.69
2018-08-10T01:50:57.117Z,1010.85
2018-08-10T01:51:23.249Z,1010.7
2018-08-10T01:51:49.384Z,1010.63
2018-08-10T01:52:15.530Z,1010.75
2018-08-10T01:52:41.676Z,1010.78
2018-08-10T01:53:07.818Z,1010.81
2018-08-10T01:53:33.951Z,1010.86
2018-08-10T01:54:00.097Z,1010.89
2018-08-10T01:54:26.234Z,1010.78
2018-08-10T01:54:52.373Z,1010.75
2018-08-10T01:55:18.525Z,1010.81
2018-08-10T01:55:44.659Z,1010.82
2018-08-10T01:56:10.789Z,1010.8
2018-08-10T01:56:36.926Z,1010.81
2018-08-10T01:57:03.061Z,1010.77
2018-08-10T01:57:29.189Z,1010.84
2018-08-10T01:57:55.324Z,1010.84
2018-08-10T01:58:21.459Z,1010.77
2018-08-10T01:58:47.594Z,1010.88
2018-08-10T01:59:13.733Z,1010.9
2018-08-10T01:59:39.863Z,1010.82
2018-08-10T02:00:06.007Z,1010.83
2018-08-10T02:00:32.145Z,1010.74
2018-08-10T02:00:58.275Z,1010.92
2018-08-10T02:01:24.406Z,1010.92
2018-08-10T02:01:50.549Z,1010.96
2018-08-10T02:02:16.681Z,1010.91
2018-08-10T02:02:42.816Z,1010.96
2018-08-10T02:03:08.960Z,1010.87
2018-08-10T02:03:35.089Z,1010.92
2018-08-10T02:04:01.223Z,1010.89
2018-08-10T02:04:27.364Z,1011.04
2018-08-10T02:04:53.502Z,1010.89
2018-08-10T02:05:19.635Z,1010.91
2018-08-10T02:05:45.769Z,1010.91
2018-08-10T02:06:11.900Z,1010.94
2018-08-10T02:06:38.050Z,1010.95
2018-08-10T02:07:04.190Z,1010.92
2018-08-10T02:07:30.356Z,1010.91
2018-08-10T02:07:56.490Z,1010.94
2018-08-10T02:08:22.630Z,1010.9
2018-08-10T02:08:48.763Z,1010.95
2018-08-10T02:09:14.898Z,1010.99
2018-08-10T02:09:41.030Z,1010.94
2018-08-10T02:10:07.157Z,1010.94
2018-08-10T02:10:33.300Z,1010.93
2018-08-10T02:10:59.485Z,1010.93
2018-08-10T02:11:25.614Z,1010.98
2018-08-10T02:11:51.746Z,1010.97
2018-08-10T02:12:17.888Z,1010.93
2018-08-10T02:12:44.025Z,1010.97
2018-08-10T02:13:10.158Z,1010.98
2018-08-10T02:13:36.318Z,1011.02
2018-08-10T02:14:02.450Z,1011.02
2018-08-10T02:14:28.589Z,1011.06
2018-08-10T02:14:54.723Z,1011.09
2018-08-10T02:15:20.891Z,1010.99
2018-08-10T02:15:47.021Z,1011.09
2018-08-10T02:16:13.153Z,1011.05
2018-08-10T02:16:39.338Z,1011.01
2018-08-10T02:17:05.473Z,1011.12
2018-08-10T02:17:31.637Z,1011.12
2018-08-10T02:17:57.778Z,1011.12
2018-08-10T02:18:23.917Z,1011.09
2018-08-10T02:18:50.050Z,1011.04
2018-08-10T02:19:16.186Z,1011.06
2018-08-10T02:19:42.319Z,1011.17
2018-08-10T02:20:08.454Z,1011.15
2018-08-10T02:20:34.590Z,1011.11
2018-08-10T02:21:00.727Z,1011.08
2018-08-10T02:21:26.856Z,1011.05
2018-08-10T02:21:52.987Z,1011.1
2018-08-10T02:22:19.121Z,1011.2
2018-08-10T02:22:45.278Z,1011.17
2018-08-10T02:23:11.439Z,1011.01
2018-08-10T02:23:37.575Z,1011.17
2018-08-10T02:24:03.700Z,1011.03
2018-08-10T02:24:29.858Z,1011.08
2018-08-10T02:24:55.996Z,1011.07
2018-08-10T02:25:22.126Z,1011.1
2018-08-10T02:25:48.258Z,1011.08
2018-08-10T02:26:14.393Z,1011.11
2018-08-10T02:26:40.526Z,1011.07
2018-08-10T02:27:06.654Z,1011.09
2018-08-10T02:27:32.811Z,1011.22
2018-08-10T02:27:58.939Z,1011.11
2018-08-10T02:28:25.074Z,1011.14
2018-08-10T02:28:51.208Z,1011.18
2018-08-10T02:29:17.367Z,1011.2
2018-08-10T02:29:43.520Z,1011.19
2018-08-10T02:30:09.650Z,1011.17
2018-08-10T02:30:35.839Z,1011.1
2018-08-10T02:31:02.024Z,1011.07
2018-08-10T02:31:28.151Z,1011.1
2018-08-10T02:31:54.287Z,1011.16
2018-08-10T02:32:20.447Z,1011.24
2018-08-10T02:32:46.573Z,1011.21
2018-08-10T02:33:12.714Z,1011.11
2018-08-10T02:33:38.848Z,1011.19
2018-08-10T02:34:05.063Z,1011.23
2018-08-10T02:34:31.253Z,1011.23
2018-08-10T02:34:57.394Z,1011.24
2018-08-10T02:35:23.548Z,1011.15
2018-08-10T02:35:49.707Z,1011.24
2018-08-10T02:36:15.894Z,1011.28
2018-08-10T02:36:42.073Z,1011.29
2018-08-10T02:37:08.212Z,1011.23
2018-08-10T02:37:34.349Z,1011.29
2018-08-10T02:38:00.497Z,1011.31
2018-08-10T02:38:26.647Z,1011.27
2018-08-10T02:38:52.767Z,1011.24
2018-08-10T02:39:18.909Z,1011.24
2018-08-10T02:39:45.069Z,1011.29
2018-08-10T02:40:11.229Z,1011.31
2018-08-10T02:40:37.354Z,1011.28
2018-08-10T02:41:03.521Z,1011.3
2018-08-10T02:41:29.678Z,1011.26
2018-08-10T02:41:55.861Z,1011.27
2018-08-10T02:42:22.001Z,1011.27
2018-08-10T02:42:48.162Z,1011.31
2018-08-10T02:43:14.356Z,1011.18
2018-08-10T02:43:40.488Z,1011.35
2018-08-10T02:44:06.652Z,1011.28
2018-08-10T02:44:32.814Z,1011.33
2018-08-10T02:44:58.990Z,1011.4
2018-08-10T02:45:25.159Z,1011.37
2018-08-10T02:45:51.315Z,1011.35
2018-08-10T02:46:17.474Z,1011.29
2018-08-10T02:46:43.648Z,1011.36
2018-08-10T02:47:09.783Z,1011.25
2018-08-10T02:47:35.919Z,1011.35
2018-08-10T02:48:02.073Z,1011.41
2018-08-10T02:48:28.212Z,1011.27
2018-08-10T02:48:54.367Z,1011.33
2018-08-10T02:49:20.520Z,1011.27
2018-08-10T02:49:46.712Z,1011.47
2018-08-10T02:50:12.875Z,1011.42
2018-08-10T02:50:39.003Z,1011.36
2018-08-10T02:51:05.167Z,1011.38
2018-08-10T02:51:31.309Z,1011.3
2018-08-10T02:51:57.487Z,1011.43
2018-08-10T02:52:23.624Z,1011.48
2018-08-10T02:52:49.789Z,1011.36
2018-08-10T02:53:15.920Z,1011.43
2018-08-10T02:53:42.074Z,1011.48
2018-08-10T02:54:08.239Z,1011.42
2018-08-10T02:54:34.415Z,1011.43
2018-08-10T02:55:00.508Z,1011.53
2018-08-10T02:55:26.682Z,1011.47
2018-08-10T02:55:52.847Z,1011.49
2018-08-10T02:56:18.984Z,1011.52
2018-08-10T02:56:45.113Z,1011.58
2018-08-10T02:57:11.279Z,1011.32
2018-08-10T02:57:37.412Z,1011.56
2018-08-10T02:58:03.616Z,1011.56
2018-08-10T02:58:29.779Z,1011.55
2018-08-10T02:58:55.911Z,1011.5
2018-08-10T02:59:22.084Z,1011.55
2018-08-10T02:59:48.271Z,1011.65
2018-08-10T03:00:14.430Z,1011.64
2018-08-10T03:00:40.610Z,1011.46
2018-08-10T03:01:06.749Z,1011.49
2018-08-10T03:01:32.881Z,1011.49
2018-08-10T03:01:59.062Z,1011.56
2018-08-10T03:02:25.255Z,1011.61
2018-08-10T03:02:51.433Z,1011.49
2018-08-10T03:03:17.669Z,1011.64
2018-08-10T03:03:43.851Z,1011.55
2018-08-10T03:04:10.026Z,1011.57
2018-08-10T03:04:36.217Z,1011.5
2018-08-10T03:05:02.350Z,1011.57
2018-08-10T03:05:28.552Z,1011.57
2018-08-10T03:05:54.693Z,1011.56
2018-08-10T03:06:20.885Z,1011.63
2018-08-10T03:06:47.037Z,1011.54
2018-08-10T03:07:13.193Z,1011.57
2018-08-10T03:07:39.335Z,1011.6
2018-08-10T03:08:05.496Z,1011.58
2018-08-10T03:08:31.655Z,1011.73
2018-08-10T03:08:57.795Z,1011.65
2018-08-10T03:09:23.976Z,1011.63
2018-08-10T03:09:50.156Z,1011.62
2018-08-10T03:10:16.290Z,1011.63
2018-08-10T03:10:42.449Z,1011.64
2018-08-10T03:11:08.623Z,1011.61
2018-08-10T03:11:34.808Z,1011.61
2018-08-10T03:12:00.935Z,1011.72
2018-08-10T03:12:27.095Z,1011.58
2018-08-10T03:12:53.219Z,1011.63
2018-08-10T03:13:19.405Z,1011.7
2018-08-10T03:13:45.556Z,1011.65
2018-08-10T03:14:11.697Z,1011.56
2018-08-10T03:14:37.847Z,1011.67
2018-08-10T03:15:03.984Z,1011.72
2018-08-10T03:15:30.120Z,1011.77
2018-08-10T03:15:56.260Z,1011.71
2018-08-10T03:16:22.410Z,1011.7
2018-08-10T03:16:48.559Z,1011.76
2018-08-10T03:17:14.712Z,1011.75
2018-08-10T03:17:40.904Z,1011.77
2018-08-10T03:18:07.041Z,1011.73
2018-08-10T03:18:33.196Z,1011.84
2018-08-10T03:18:59.323Z,1011.76
2018-08-10T03:19:25.484Z,1011.74
2018-08-10T03:19:51.625Z,1011.79
2018-08-10T03:20:17.756Z,1011.81
2018-08-10T03:20:43.932Z,1011.68
2018-08-10T03:21:10.066Z,1011.79
2018-08-10T03:21:36.228Z,1011.74
2018-08-10T03:22:02.414Z,1011.76
2018-08-10T03:22:28.527Z,1011.71
2018-08-10T03:22:54.660Z,1011.72
2018-08-10T03:23:20.797Z,1011.77
2018-08-10T03:23:46.930Z,1011.78
2018-08-10T03:24:13.113Z,1011.77
2018-08-10T03:24:39.242Z,1011.84
2018-08-10T03:25:05.395Z,1011.9
2018-08-10T03:25:31.557Z,1011.8
2018-08-10T03:25:57.698Z,1011.82
2018-08-10T03:26:23.881Z,1011.81
2018-08-10T03:26:50.055Z,1011.82
2018-08-10T03:27:16.212Z,1011.88
2018-08-10T03:27:42.367Z,1011.9
2018-08-10T03:28:08.505Z,1011.94
2018-08-10T03:28:34.645Z,1011.92
2018-08-10T03:29:00.777Z,1011.93
2018-08-10T03:29:26.911Z,1011.85
2018-08-10T03:29:53.053Z,1011.94
2018-08-10T03:30:19.198Z,1011.88
2018-08-10T03:30:45.358Z,1011.96
2018-08-10T03:31:11.508Z,1011.93
2018-08-10T03:31:37.675Z,1011.93
2018-08-10T03:32:03.880Z,1012.24
2018-08-10T03:32:30.034Z,1012.03
2018-08-10T03:32:56.191Z,1011.97
2018-08-10T03:33:22.325Z,1012.01
2018-08-10T03:33:48.462Z,1012.01
2018-08-10T03:34:14.620Z,1011.99
2018-08-10T03:34:40.752Z,1012
2018-08-10T03:35:06.891Z,1012.09
2018-08-10T03:35:33.018Z,1012
2018-08-10T03:35:59.161Z,1012.07
2018-08-10T03:36:25.288Z,1012.09
2018-08-10T03:36:51.427Z,1011.99
2018-08-10T03:37:17.556Z,1012.01
2018-08-10T03:37:43.717Z,1012.02
2018-08-10T03:38:09.858Z,1012.07
2018-08-10T03:38:36.015Z,1012.04
2018-08-10T03:39:02.142Z,1012.07
2018-08-10T03:39:28.286Z,1012.07
2018-08-10T03:39:54.416Z,1012.2
2018-08-10T03:40:20.555Z,1012.11
2018-08-10T03:40:46.712Z,1012.11
2018-08-10T03:41:12.849Z,1012.05
2018-08-10T03:41:38.977Z,1012.15
2018-08-10T03:42:05.115Z,1012.06
2018-08-10T03:42:31.254Z,1012.09
2018-08-10T03:42:57.405Z,1012.17
2018-08-10T03:43:23.539Z,1012.16
2018-08-10T03:43:49.678Z,1012.11
2018-08-10T03:44:15.834Z,1012.11
2018-08-10T03:44:41.969Z,1012.17
2018-08-10T03:45:08.128Z,1012.2
2018-08-10T03:45:34.285Z,1012.18
2018-08-10T03:46:00.418Z,1012.19
2018-08-10T03:46:26.553Z,1012.16
2018-08-10T03:46:52.699Z,1012.2
2018-08-10T03:47:18.832Z,1012.24
2018-08-10T03:47:45.012Z,1012.21
2018-08-10T03:48:11.141Z,1012.25
2018-08-10T03:48:37.271Z,1012.24
2018-08-10T03:49:03.416Z,1012.29
2018-08-10T03:49:29.540Z,1012.27
2018-08-10T03:49:55.767Z,1012.19
2018-08-10T03:50:21.860Z,1012.31
2018-08-10T03:50:47.984Z,1012.37
2018-08-10T03:51:14.127Z,1012.32
2018-08-10T03:51:40.254Z,1012.38
2018-08-10T03:52:06.415Z,1012.32
2018-08-10T03:52:32.573Z,1012.32
2018-08-10T03:52:58.708Z,1012.3
2018-08-10T03:53:24.871Z,1012.34
2018-08-10T03:53:50.997Z,1012.35
2018-08-10T03:54:17.159Z,1012.38
2018-08-10T03:54:43.284Z,1012.37
2018-08-10T03:55:09.424Z,1012.31
2018-08-10T03:55:35.586Z,1012.41
2018-08-10T03:56:01.722Z,1012.43
2018-08-10T03:56:27.848Z,1012.35
2018-08-10T03:56:53.986Z,1012.46
2018-08-10T03:57:20.111Z,1012.39
2018-08-10T03:57:46.248Z,1012.42
2018-08-10T03:58:12.377Z,1012.41
2018-08-10T03:58:38.517Z,1012.42
2018-08-10T03:59:04.657Z,1012.4
2018-08-10T03:59:30.783Z,1012.41
2018-08-10T03:59:56.917Z,1012.38
2018-08-10T04:00:23.051Z,1012.32
2018-08-10T04:00:49.183Z,1012.45
2018-08-10T04:01:15.316Z,1012.43
2018-08-10T04:01:41.456Z,1012.44
2018-08-10T04:02:07.613Z,1012.47
2018-08-10T04:02:33.821Z,1012.48
2018-08-10T04:02:59.957Z,1012.49
2018-08-10T04:03:26.086Z,1012.48
2018-08-10T04:03:52.224Z,1012.49
2018-08-10T04:04:18.359Z,1012.47
2018-08-10T04:04:44.497Z,1012.52
2018-08-10T04:05:10.627Z,1012.46
2018-08-10T04:05:36.762Z,1012.47
2018-08-10T04:06:02.891Z,1012.53
2018-08-10T04:06:29.024Z,1012.56
2018-08-10T04:06:55.154Z,1012.58
2018-08-10T04:07:21.313Z,1012.45
2018-08-10T04:07:47.441Z,1012.53
2018-08-10T04:08:13.574Z,1012.49
2018-08-10T04:08:39.706Z,1012.47
2018-08-10T04:09:05.829Z,1012.47
2018-08-10T04:09:31.965Z,1012.56
2018-08-10T04:09:58.114Z,1012.55
2018-08-10T04:10:24.247Z,1012.55
2018-08-10T04:10:50.378Z,1012.52
2018-08-10T04:11:16.516Z,1012.53
2018-08-10T04:11:42.693Z,1012.55
2018-08-10T04:12:08.825Z,1012.48
2018-08-10T04:12:34.969Z,1012.58
2018-08-10T04:13:01.120Z,1012.5
2018-08-10T04:13:27.261Z,1012.61
2018-08-10T04:13:53.394Z,1012.53
2018-08-10T04:14:19.525Z,1012.51
2018-08-10T04:14:45.656Z,1012.56
2018-08-10T04:15:11.848Z,1012.52
2018-08-10T04:15:37.977Z,1012.55
2018-08-10T04:16:04.191Z,1012.56
2018-08-10T04:16:30.325Z,1012.61
2018-08-10T04:16:56.457Z,1012.56
2018-08-10T04:17:22.596Z,1012.6
2018-08-10T04:17:48.723Z,1012.51
2018-08-10T04:18:14.885Z,1012.55
2018-08-10T04:18:41.018Z,1012.55
2018-08-10T04:19:07.148Z,1012.53
2018-08-10T04:19:33.292Z,1012.55
2018-08-10T04:19:59.418Z,1012.58
2018-08-10T04:20:25.555Z,1012.62
2018-08-10T04:20:51.684Z,1012.59
2018-08-10T04:21:17.830Z,1012.53
2018-08-10T04:21:43.958Z,1012.55
2018-08-10T04:22:10.116Z,1012.62
2018-08-10T04:22:36.277Z,1012.65
2018-08-10T04:23:02.435Z,1012.59
2018-08-10T04:23:28.597Z,1012.62
2018-08-10T04:23:54.783Z,1012.69
2018-08-10T04:24:20.913Z,1012.68
2018-08-10T04:24:47.048Z,1012.69
2018-08-10T04:25:13.177Z,1012.62
2018-08-10T04:25:39.313Z,1012.7
2018-08-10T04:26:05.451Z,1012.66
2018-08-10T04:26:31.583Z,1012.63
2018-08-10T04:26:57.721Z,1012.72
2018-08-10T04:27:23.886Z,1012.73
2018-08-10T04:27:50.012Z,1012.75
2018-08-10T04:28:16.153Z,1012.74
2018-08-10T04:28:42.306Z,1012.81
2018-08-10T04:29:08.444Z,1012.68
2018-08-10T04:29:34.616Z,1012.76
2018-08-10T04:30:00.739Z,1012.71
2018-08-10T04:30:26.875Z,1012.81
2018-08-10T04:30:53.008Z,1012.76
2018-08-10T04:31:19.144Z,1012.76
2018-08-10T04:31:45.276Z,1012.76
2018-08-10T04:32:11.412Z,1012.82
2018-08-10T04:32:37.549Z,1012.76
2018-08-10T04:33:03.702Z,1012.81
2018-08-10T04:33:29.834Z,1012.82
2018-08-10T04:33:55.958Z,1012.9
2018-08-10T04:34:22.095Z,1012.84
2018-08-10T04:34:48.246Z,1012.86
2018-08-10T04:35:14.381Z,1012.89
2018-08-10T04:35:40.520Z,1012.81
2018-08-10T04:36:06.649Z,1012.88
2018-08-10T04:36:32.784Z,1012.94
2018-08-10T04:36:58.918Z,1013.03
2018-08-10T04:37:25.049Z,1012.97
2018-08-10T04:37:51.205Z,1012.91
2018-08-10T04:38:17.338Z,1012.93
2018-08-10T04:38:43.484Z,1012.99
2018-08-10T04:39:09.633Z,1013.03
2018-08-10T04:39:35.771Z,1012.89
2018-08-10T04:40:01.904Z,1012.95
2018-08-10T04:40:28.059Z,1013.01
2018-08-10T04:40:54.223Z,1012.97
2018-08-10T04:41:20.353Z,1013
2018-08-10T04:41:46.481Z,1013.03
2018-08-10T04:42:12.640Z,1013
2018-08-10T04:42:38.792Z,1013.03
2018-08-10T04:43:04.926Z,1012.99
2018-08-10T04:43:31.061Z,1013
2018-08-10T04:43:57.223Z,1013.09
2018-08-10T04:44:23.351Z,1013.05
2018-08-10T04:44:49.485Z,1013.08
2018-08-10T04:45:15.617Z,1013.1
2018-08-10T04:45:41.753Z,1013.05
2018-08-10T04:46:07.911Z,1013.09
2018-08-10T04:46:34.040Z,1013.09
2018-08-10T04:47:00.175Z,1013.09
2018-08-10T04:47:26.303Z,1013.17
2018-08-10T04:47:52.436Z,1013.1
2018-08-10T04:48:18.645Z,1013.2
2018-08-10T04:48:44.727Z,1013.24
2018-08-10T04:49:10.857Z,1013.17
2018-08-10T04:49:37.016Z,1013.24
2018-08-10T04:50:03.150Z,1013.19
2018-08-10T04:50:29.287Z,1013.16
2018-08-10T04:50:55.460Z,1013.23
2018-08-10T04:51:21.635Z,1013.15
2018-08-10T04:51:47.774Z,1013.22
2018-08-10T04:52:13.933Z,1013.16
2018-08-10T04:52:40.092Z,1013.21
2018-08-10T04:53:06.215Z,1013.25
2018-08-10T04:53:32.390Z,1013.27
2018-08-10T04:53:58.509Z,1013.3
2018-08-10T04:54:24.650Z,1013.28
2018-08-10T04:54:50.786Z,1013.23
2018-08-10T04:55:16.969Z,1013.22
2018-08-10T04:55:43.090Z,1013.25
2018-08-10T04:56:09.247Z,1013.23
2018-08-10T04:56:35.375Z,1013.25
2018-08-10T04:57:01.512Z,1013.26
2018-08-10T04:57:27.646Z,1013.26
2018-08-10T04:57:53.783Z,1013.34
2018-08-10T04:58:19.911Z,1013.29
2018-08-10T04:58:46.046Z,1013.26
2018-08-10T04:59:12.179Z,1013.3
2018-08-10T04:59:38.315Z,1013.35
2018-08-10T05:00:04.460Z,1013.33
2018-08-10T05:00:30.613Z,1013.33
2018-08-10T05:00:56.771Z,1013.42
2018-08-10T05:01:22.903Z,1013.34
2018-08-10T05:01:49.043Z,1013.38
2018-08-10T05:02:15.195Z,1013.35
2018-08-10T05:02:41.329Z,1013.4
2018-08-10T05:03:07.491Z,1013.4
2018-08-10T05:03:33.659Z,1013.3
2018-08-10T05:03:59.763Z,1013.42
2018-08-10T05:04:25.887Z,1013.42
2018-08-10T05:04:52.027Z,1013.45
2018-08-10T05:05:18.160Z,1013.39
2018-08-10T05:05:44.299Z,1013.45
2018-08-10T05:06:10.477Z,1013.51
2018-08-10T05:06:36.617Z,1013.47
2018-08-10T05:07:02.776Z,1013.53
2018-08-10T05:07:28.908Z,1013.46
2018-08-10T05:07:55.039Z,1013.47
2018-08-10T05:08:21.176Z,1013.49
2018-08-10T05:08:47.314Z,1013.52
2018-08-10T05:09:13.451Z,1013.42
2018-08-10T05:09:39.585Z,1013.5
2018-08-10T05:10:05.719Z,1013.43
2018-08-10T05:10:31.857Z,1013.5
2018-08-10T05:10:57.993Z,1013.53
2018-08-10T05:11:24.121Z,1013.49
2018-08-10T05:11:50.260Z,1013.59
2018-08-10T05:12:16.409Z,1013.54
2018-08-10T05:12:42.550Z,1013.52
2018-08-10T05:13:08.676Z,1013.53
2018-08-10T05:13:34.866Z,1013.56
2018-08-10T05:14:01.005Z,1013.57
2018-08-10T05:14:27.141Z,1013.55
2018-08-10T05:14:53.300Z,1013.57
2018-08-10T05:15:19.433Z,1013.59
2018-08-10T05:15:45.632Z,1013.58
2018-08-10T05:16:11.701Z,1013.68
2018-08-10T05:16:37.832Z,1013.56
2018-08-10T05:17:03.969Z,1013.6
2018-08-10T05:17:30.122Z,1013.62
2018-08-10T05:17:56.259Z,1013.61
2018-08-10T05:18:22.413Z,1013.61